createdAt,value
2022-09-23T00:01:13.562Z,12.23
2022-09-23T00:03:42.737Z,12.25
2022-09-23T00:06:12.405Z,12.28
2022-09-23T00:08:40.365Z,12.26
2022-09-23T00:11:15.887Z,12.30
2022-09-23T00:13:48.932Z,12.30
2022-09-23T00:16:28.471Z,12.31
2022-09-23T00:18:55.334Z,12.31
2022-09-23T00:21:25.314Z,12.32
2022-09-23T00:23:52.021Z,12.35
2022-09-23T00:26:21.619Z,12.35
2022-09-23T00:28:51.805Z,12.37
2022-09-23T00:31:24.268Z,12.37
2022-09-23T00:33:58.826Z,12.35
2022-09-23T00:36:26.519Z,12.35
2022-09-23T00:38:56.570Z,12.35
2022-09-23T00:41:23.713Z,12.35
2022-09-23T00:43:55.733Z,12.34
2022-09-23T00:46:38.041Z,12.33
2022-09-23T00:49:37.619Z,12.30
2022-09-23T00:52:13.096Z,12.35
2022-09-23T00:54:43.569Z,12.32
2022-09-23T00:57:13.286Z,12.32
2022-09-23T00:59:40.409Z,12.29
2022-09-23T01:02:07.570Z,12.29
2022-09-23T01:04:34.838Z,12.27
2022-09-23T01:07:01.444Z,12.26
2022-09-23T01:09:28.501Z,12.25
2022-09-23T01:12:12.909Z,12.24
2022-09-23T01:15:09.860Z,12.22
2022-09-23T01:18:11.394Z,12.20
2022-09-23T01:21:06.323Z,12.15
2022-09-23T01:23:54.594Z,12.13
2022-09-23T01:26:53.465Z,12.09
2022-09-23T01:29:47.313Z,12.07
2022-09-23T01:32:40.986Z,12.07
2022-09-23T01:35:26.315Z,12.04
2022-09-23T01:38:31.927Z,12.04
2022-09-23T01:41:14.200Z,12.02
2022-09-23T01:43:49.937Z,12.01
2022-09-23T01:46:31.430Z,11.99
2022-09-23T01:49:15.723Z,11.99
2022-09-23T01:51:48.914Z,11.98
2022-09-23T01:54:22.970Z,12.00
2022-09-23T01:57:01.392Z,12.01
2022-09-23T01:59:27.935Z,12.02
2022-09-23T02:02:01.836Z,12.03
2022-09-23T02:04:39.609Z,12.03
2022-09-23T02:07:29.475Z,12.05
2022-09-23T02:10:25.762Z,12.04
2022-09-23T02:12:58.052Z,12.01
2022-09-23T02:15:41.938Z,11.99
2022-09-23T02:18:16.846Z,11.98
2022-09-23T02:20:43.995Z,11.97
2022-09-23T02:23:21.013Z,11.95
2022-09-23T02:26:12.005Z,11.91
2022-09-23T02:29:16.869Z,11.89
2022-09-23T02:31:49.502Z,11.89
2022-09-23T02:34:33.984Z,11.87
2022-09-23T02:37:29.592Z,11.88
2022-09-23T02:40:00.245Z,11.85
2022-09-23T02:42:52.838Z,11.82
2022-09-23T02:45:19.767Z,11.80
2022-09-23T02:47:49.911Z,11.79
2022-09-23T02:50:19.177Z,11.80
2022-09-23T02:52:46.951Z,11.76
2022-09-23T02:55:17.258Z,11.76
2022-09-23T02:57:44.653Z,11.75
2022-09-23T03:00:12.453Z,11.71
2022-09-23T03:02:58.913Z,11.72
2022-09-23T03:05:32.169Z,11.73
2022-09-23T03:08:42.354Z,11.73
2022-09-23T03:11:13.079Z,11.73
2022-09-23T03:14:17.864Z,11.72
2022-09-23T03:17:06.984Z,11.72
2022-09-23T03:19:50.762Z,11.70
2022-09-23T03:22:35.604Z,11.68
2022-09-23T03:25:16.051Z,11.68
2022-09-23T03:27:44.141Z,11.66
2022-09-23T03:30:11.634Z,11.65
2022-09-23T03:32:39.499Z,11.64
2022-09-23T03:35:06.747Z,11.63
2022-09-23T03:37:54.070Z,11.61
2022-09-23T03:40:35.793Z,11.62
2022-09-23T03:43:04.532Z,11.64
2022-09-23T03:45:33.594Z,11.62
2022-09-23T03:48:00.733Z,11.59
2022-09-23T03:50:28.005Z,11.57
2022-09-23T03:52:54.659Z,11.52
2022-09-23T03:55:21.461Z,11.50
2022-09-23T03:57:48.755Z,11.49
2022-09-23T04:00:16.079Z,11.50
2022-09-23T04:02:43.056Z,11.48
2022-09-23T04:05:11.592Z,11.47
2022-09-23T04:07:38.579Z,11.44
2022-09-23T04:10:06.349Z,11.42
2022-09-23T04:12:33.013Z,11.42
2022-09-23T04:15:00.160Z,11.40
2022-09-23T04:17:26.830Z,11.41
2022-09-23T04:19:53.501Z,11.39
2022-09-23T04:22:20.145Z,11.41
2022-09-23T04:24:47.011Z,11.39
2022-09-23T04:27:13.658Z,11.40
2022-09-23T04:29:40.279Z,11.39
2022-09-23T04:32:06.862Z,11.41
2022-09-23T04:34:33.537Z,11.38
2022-09-23T04:37:00.142Z,11.37
2022-09-23T04:39:26.883Z,11.36
2022-09-23T04:41:53.487Z,11.35
2022-09-23T04:44:21.322Z,11.31
2022-09-23T04:46:48.395Z,11.28
2022-09-23T04:49:16.465Z,11.27
2022-09-23T04:51:43.760Z,11.25
2022-09-23T04:54:12.239Z,11.24
2022-09-23T04:56:39.911Z,11.24
2022-09-23T04:59:07.586Z,11.26
2022-09-23T05:01:36.359Z,11.28
2022-09-23T05:04:06.856Z,11.31
2022-09-23T05:06:35.004Z,11.32
2022-09-23T05:09:02.842Z,11.31
2022-09-23T05:11:31.384Z,11.33
2022-09-23T05:13:58.590Z,11.35
2022-09-23T05:16:26.220Z,11.38
2022-09-23T05:18:53.329Z,11.41
2022-09-23T05:21:22.791Z,11.42
2022-09-23T05:23:54.237Z,11.41
2022-09-23T05:26:25.834Z,11.44
2022-09-23T05:28:54.020Z,11.46
2022-09-23T05:31:26.399Z,11.47
2022-09-23T05:33:57.466Z,11.49
2022-09-23T05:36:26.250Z,11.52
2022-09-23T05:38:52.985Z,11.55
2022-09-23T05:41:23.247Z,11.60
2022-09-23T05:43:51.838Z,11.64
2022-09-23T05:46:30.028Z,11.67
2022-09-23T05:49:01.771Z,11.71
2022-09-23T05:51:31.162Z,11.74
2022-09-23T05:53:58.997Z,11.76
2022-09-23T05:56:27.902Z,11.79
2022-09-23T05:58:57.200Z,11.80
2022-09-23T06:01:27.709Z,11.84
2022-09-23T06:03:56.322Z,11.88
2022-09-23T06:06:31.886Z,11.92
2022-09-23T06:08:59.547Z,11.95
2022-09-23T06:11:26.891Z,11.98
2022-09-23T06:14:05.885Z,12.01
2022-09-23T06:16:37.919Z,12.04
2022-09-23T06:19:07.461Z,12.06
2022-09-23T06:21:36.115Z,12.08
2022-09-23T06:24:03.338Z,12.08
2022-09-23T06:26:33.646Z,12.13
2022-09-23T06:29:08.784Z,12.17
2022-09-23T06:31:35.927Z,12.18
2022-09-23T06:34:11.564Z,12.16
2022-09-23T06:36:44.356Z,12.17
2022-09-23T06:39:12.956Z,12.18
2022-09-23T06:41:39.850Z,12.21
2022-09-23T06:44:06.597Z,12.22
2022-09-23T06:46:33.583Z,12.24
2022-09-23T06:49:02.126Z,12.27
2022-09-23T06:51:28.712Z,12.31
2022-09-23T06:53:57.627Z,12.33
2022-09-23T06:56:24.770Z,12.36
2022-09-23T06:58:55.805Z,12.40
2022-09-23T07:01:23.304Z,12.45
2022-09-23T07:03:52.830Z,12.47
2022-09-23T07:06:19.994Z,12.50
2022-09-23T07:08:51.352Z,12.53
2022-09-23T07:11:22.414Z,12.52
2022-09-23T07:13:49.188Z,12.53
2022-09-23T07:16:18.816Z,12.56
2022-09-23T07:18:45.817Z,12.59
2022-09-23T07:21:24.159Z,12.62
2022-09-23T07:23:51.904Z,12.64
2022-09-23T07:26:22.932Z,12.65
2022-09-23T07:28:54.698Z,12.67
2022-09-23T07:31:33.452Z,12.66
2022-09-23T07:34:06.594Z,12.67
2022-09-23T07:36:33.308Z,12.70
2022-09-23T07:39:03.842Z,12.71
2022-09-23T07:41:32.230Z,12.72
2022-09-23T07:44:00.750Z,12.75
2022-09-23T07:46:33.086Z,12.79
2022-09-23T07:48:59.871Z,12.83
2022-09-23T07:51:35.526Z,12.86
2022-09-23T07:54:05.419Z,12.90
2022-09-23T07:56:32.091Z,12.93
2022-09-23T07:59:05.810Z,12.97
2022-09-23T08:01:44.709Z,12.99
2022-09-23T08:04:17.978Z,13.02
2022-09-23T08:06:51.360Z,13.04
2022-09-23T08:09:20.034Z,13.08
2022-09-23T08:11:46.928Z,13.11
2022-09-23T08:14:15.485Z,13.18
2022-09-23T08:16:42.563Z,13.19
2022-09-23T08:19:09.538Z,13.22
2022-09-23T08:21:37.651Z,13.26
2022-09-23T08:24:04.348Z,13.29
2022-09-23T08:26:32.637Z,13.35
2022-09-23T08:28:59.240Z,13.40
2022-09-23T08:31:26.066Z,13.43
2022-09-23T08:33:57.753Z,13.48
2022-09-23T08:36:25.448Z,13.52
2022-09-23T08:38:52.602Z,13.56
2022-09-23T08:41:47.757Z,13.60
2022-09-23T08:44:23.067Z,13.62
2022-09-23T08:47:04.938Z,13.66
2022-09-23T08:49:38.742Z,13.68
2022-09-23T08:52:29.536Z,13.70
2022-09-23T08:54:56.451Z,13.74
2022-09-23T08:57:32.707Z,13.80
2022-09-23T09:00:01.825Z,13.84
2022-09-23T09:02:29.680Z,13.88
2022-09-23T09:05:03.579Z,13.93
2022-09-23T09:07:37.445Z,13.98
2022-09-23T09:10:19.444Z,14.03
2022-09-23T09:12:49.886Z,14.07
2022-09-23T09:15:27.583Z,14.12
2022-09-23T09:18:04.429Z,14.16
2022-09-23T09:20:57.188Z,14.20
2022-09-23T09:23:49.106Z,14.24
2022-09-23T09:26:36.001Z,14.30
2022-09-23T09:29:34.414Z,14.34
2022-09-23T09:32:25.570Z,14.36
2022-09-23T09:35:05.326Z,14.36
2022-09-23T09:37:40.467Z,14.39
2022-09-23T09:40:12.250Z,14.42
2022-09-23T09:42:50.315Z,14.46
2022-09-23T09:45:28.385Z,14.51
2022-09-23T09:48:01.816Z,14.55
2022-09-23T09:51:18.836Z,14.59
2022-09-23T09:53:45.469Z,14.65
2022-09-23T09:56:16.486Z,14.67
2022-09-23T09:58:56.818Z,14.72
2022-09-23T10:01:27.443Z,14.77
2022-09-23T10:03:59.141Z,14.82
2022-09-23T10:06:29.060Z,14.87
2022-09-23T10:09:01.922Z,14.92
2022-09-23T10:11:32.574Z,14.96
2022-09-23T10:14:11.202Z,14.99
2022-09-23T10:16:38.086Z,15.02
2022-09-23T10:19:13.963Z,15.06
2022-09-23T10:21:42.911Z,15.08
2022-09-23T10:24:22.711Z,15.11
2022-09-23T10:26:58.134Z,15.16
2022-09-23T10:29:53.315Z,15.23
2022-09-23T10:32:27.764Z,15.29
2022-09-23T10:34:57.623Z,15.34
2022-09-23T10:37:32.884Z,15.40
2022-09-23T10:40:19.557Z,15.42
2022-09-23T10:43:45.810Z,15.49
2022-09-23T10:46:39.817Z,15.58
2022-09-23T10:49:27.708Z,15.67
2022-09-23T10:52:16.159Z,15.76
2022-09-23T10:55:08.597Z,15.84
2022-09-23T10:57:59.036Z,15.98
2022-09-23T11:00:57.923Z,16.08
2022-09-23T11:03:58.536Z,16.19
2022-09-23T11:06:43.112Z,16.25
2022-09-23T11:09:15.615Z,16.31
2022-09-23T11:12:11.022Z,16.36
2022-09-23T11:14:46.297Z,16.40
2022-09-23T11:17:33.073Z,16.45
2022-09-23T11:20:23.877Z,16.49
2022-09-23T11:22:59.237Z,16.50
2022-09-23T11:25:47.259Z,16.52
2022-09-23T11:28:20.037Z,16.56
2022-09-23T11:30:46.613Z,16.55
2022-09-23T11:33:46.639Z,16.56
2022-09-23T11:36:28.365Z,16.56
2022-09-23T11:39:00.954Z,16.55
2022-09-23T11:41:30.600Z,16.54
2022-09-23T11:44:21.223Z,16.50
2022-09-23T11:46:55.811Z,16.50
2022-09-23T11:49:43.246Z,16.49
2022-09-23T11:52:19.564Z,16.49
2022-09-23T11:54:51.914Z,16.51
2022-09-23T11:57:49.582Z,16.53
2022-09-23T12:00:30.203Z,16.57
2022-09-23T12:03:44.365Z,16.63
2022-09-23T12:06:19.155Z,16.65
2022-09-23T12:08:45.806Z,16.67
2022-09-23T12:11:15.572Z,16.69
2022-09-23T12:13:45.072Z,16.71
2022-09-23T12:16:37.567Z,16.72
2022-09-23T12:19:28.734Z,16.75
2022-09-23T12:22:25.661Z,16.75
2022-09-23T12:25:07.664Z,16.76
2022-09-23T12:27:45.605Z,16.78
2022-09-23T12:30:25.045Z,16.81
2022-09-23T12:32:51.888Z,16.84
2022-09-23T12:35:32.215Z,16.82
2022-09-23T12:38:01.440Z,16.81
2022-09-23T12:40:43.968Z,16.83
2022-09-23T12:44:18.065Z,16.88
2022-09-23T12:46:45.904Z,16.93
2022-09-23T12:49:28.830Z,16.92
2022-09-23T12:52:25.471Z,16.92
2022-09-23T12:54:56.496Z,16.96
2022-09-23T12:57:34.973Z,16.98
2022-09-23T13:00:13.025Z,17.00
2022-09-23T13:03:07.567Z,17.02
2022-09-23T13:06:03.666Z,17.01
2022-09-23T13:08:31.051Z,17.01
2022-09-23T13:11:02.991Z,17.02
2022-09-23T13:13:42.850Z,17.01
2022-09-23T13:16:26.456Z,17.02
2022-09-23T13:19:26.311Z,17.01
2022-09-23T13:22:09.446Z,17.01
2022-09-23T13:24:40.598Z,17.02
2022-09-23T13:27:43.386Z,17.01
2022-09-23T13:30:16.445Z,17.01
2022-09-23T13:33:16.460Z,16.98
2022-09-23T13:35:51.530Z,16.98
2022-09-23T13:38:26.118Z,16.97
2022-09-23T13:41:01.951Z,16.94
2022-09-23T13:43:32.479Z,16.89
2022-09-23T13:46:01.069Z,16.84
2022-09-23T13:48:28.831Z,16.81
2022-09-23T13:50:56.147Z,16.81
2022-09-23T13:53:28.139Z,16.86
2022-09-23T13:56:13.211Z,16.89
2022-09-23T13:58:40.473Z,16.88
2022-09-23T14:01:22.333Z,16.91
2022-09-23T14:03:49.116Z,16.91
2022-09-23T14:06:16.691Z,16.92
2022-09-23T14:08:48.327Z,16.90
2022-09-23T14:11:20.897Z,16.91
2022-09-23T14:13:51.062Z,16.89
2022-09-23T14:16:19.603Z,16.86
2022-09-23T14:18:49.626Z,16.81
2022-09-23T14:21:34.765Z,16.76
2022-09-23T14:24:25.165Z,16.72
2022-09-23T14:27:11.947Z,16.67
2022-09-23T14:29:41.358Z,16.65
2022-09-23T14:32:18.706Z,16.63
2022-09-23T14:34:53.035Z,16.62
2022-09-23T14:37:41.088Z,16.58
2022-09-23T14:40:32.066Z,16.52
2022-09-23T14:43:15.852Z,16.44
2022-09-23T14:45:50.519Z,16.39
2022-09-23T14:48:23.019Z,16.34
2022-09-23T14:50:52.759Z,16.31
2022-09-23T14:53:19.486Z,16.30
2022-09-23T14:55:52.916Z,16.30
2022-09-23T14:58:22.951Z,16.29
2022-09-23T15:01:00.723Z,16.28
2022-09-23T15:03:28.633Z,16.24
2022-09-23T15:06:08.777Z,16.21
2022-09-23T15:08:36.029Z,16.17
2022-09-23T15:11:08.074Z,16.14
2022-09-23T15:13:40.083Z,16.12
2022-09-23T15:16:07.479Z,16.09
2022-09-23T15:18:37.245Z,16.06
2022-09-23T15:21:16.206Z,16.02
2022-09-23T15:23:48.717Z,15.98
2022-09-23T15:26:38.185Z,15.93
2022-09-23T15:29:09.699Z,15.88
2022-09-23T15:31:37.381Z,15.83
2022-09-23T15:34:05.658Z,15.79
2022-09-23T15:36:32.757Z,15.75
2022-09-23T15:39:06.164Z,15.71
2022-09-23T15:41:35.776Z,15.65
2022-09-23T15:44:13.317Z,15.62
2022-09-23T15:46:46.029Z,15.57
2022-09-23T15:49:36.289Z,15.51
2022-09-23T15:52:05.114Z,15.47
2022-09-23T15:54:34.765Z,15.41
2022-09-23T15:57:01.457Z,15.35
2022-09-23T15:59:31.100Z,15.31
2022-09-23T16:02:03.273Z,15.28
2022-09-23T16:04:31.425Z,15.25
2022-09-23T16:06:59.135Z,15.21
2022-09-23T16:09:28.298Z,15.16
2022-09-23T16:11:55.094Z,15.12
2022-09-23T16:14:21.755Z,15.07
2022-09-23T16:16:49.621Z,15.04
2022-09-23T16:19:17.733Z,15.00
2022-09-23T16:21:44.861Z,14.94
2022-09-23T16:24:17.147Z,14.88
2022-09-23T16:26:46.603Z,14.82
2022-09-23T16:29:13.786Z,14.75
2022-09-23T16:31:40.786Z,14.71
2022-09-23T16:34:07.478Z,14.63
2022-09-23T16:36:43.383Z,14.57
2022-09-23T16:39:12.819Z,14.49
2022-09-23T16:41:40.341Z,14.44
2022-09-23T16:44:09.371Z,14.39
2022-09-23T16:46:36.566Z,14.31
2022-09-23T16:49:03.630Z,14.25
2022-09-23T16:51:38.997Z,14.18
2022-09-23T16:54:11.769Z,14.12
2022-09-23T16:56:45.315Z,14.06
2022-09-23T16:59:13.203Z,13.99
2022-09-23T17:01:58.772Z,13.91
2022-09-23T17:04:25.611Z,13.84
2022-09-23T17:06:53.185Z,13.75
2022-09-23T17:09:28.416Z,13.67
2022-09-23T17:12:25.978Z,13.61
2022-09-23T17:14:53.117Z,13.55
2022-09-23T17:17:19.845Z,13.47
2022-09-23T17:19:47.296Z,13.38
2022-09-23T17:22:14.343Z,13.28
2022-09-23T17:24:41.449Z,13.24
2022-09-23T17:27:08.063Z,13.20
2022-09-23T17:29:34.677Z,13.17
2022-09-23T17:32:01.595Z,13.12
2022-09-23T17:34:28.984Z,13.08
2022-09-23T17:36:55.733Z,13.02
2022-09-23T17:39:22.367Z,12.99
2022-09-23T17:41:49.243Z,12.96
2022-09-23T17:44:17.632Z,12.93
2022-09-23T17:46:44.276Z,12.90
2022-09-23T17:49:11.375Z,12.88
2022-09-23T17:51:37.967Z,12.83
2022-09-23T17:54:04.678Z,12.80
2022-09-23T17:56:31.477Z,12.74
2022-09-23T17:59:01.871Z,12.68
2022-09-23T18:01:29.418Z,12.65
2022-09-23T18:03:58.228Z,12.63
2022-09-23T18:06:27.698Z,12.63
2022-09-23T18:08:55.980Z,12.61
2022-09-23T18:11:27.850Z,12.57
2022-09-23T18:13:59.995Z,12.52
2022-09-23T18:16:35.064Z,12.50
2022-09-23T18:19:03.785Z,12.47
2022-09-23T18:21:33.515Z,12.45
2022-09-23T18:24:21.732Z,12.44
2022-09-23T18:26:49.426Z,12.42
2022-09-23T18:29:16.742Z,12.40
2022-09-23T18:31:45.184Z,12.38
2022-09-23T18:34:14.115Z,12.38
2022-09-23T18:36:41.048Z,12.36
2022-09-23T18:39:07.957Z,12.35
2022-09-23T18:41:35.554Z,12.32
2022-09-23T18:44:02.575Z,12.30
2022-09-23T18:46:30.310Z,12.28
2022-09-23T18:49:16.567Z,12.25
2022-09-23T18:51:52.521Z,12.21
2022-09-23T18:54:19.822Z,12.18
2022-09-23T18:56:46.826Z,12.15
2022-09-23T18:59:19.618Z,12.14
2022-09-23T19:01:50.112Z,12.09
2022-09-23T19:04:19.294Z,12.08
2022-09-23T19:06:46.502Z,12.05
2022-09-23T19:09:14.849Z,12.03
2022-09-23T19:11:41.752Z,12.02
2022-09-23T19:14:11.354Z,12.01
2022-09-23T19:16:39.539Z,12.01
2022-09-23T19:19:06.650Z,12.00
2022-09-23T19:21:33.510Z,11.99
2022-09-23T19:24:05.790Z,11.94
2022-09-23T19:26:36.095Z,11.90
2022-09-23T19:29:04.377Z,11.84
2022-09-23T19:31:33.903Z,11.80
2022-09-23T19:34:29.380Z,11.76
2022-09-23T19:36:57.466Z,11.72
2022-09-23T19:39:26.974Z,11.67
2022-09-23T19:41:56.062Z,11.66
2022-09-23T19:44:25.148Z,11.60
2022-09-23T19:46:56.313Z,11.54
2022-09-23T19:49:25.126Z,11.50
2022-09-23T19:51:56.051Z,11.45
2022-09-23T19:54:26.097Z,11.44
2022-09-23T19:56:52.740Z,11.43
2022-09-23T19:59:19.845Z,11.43
2022-09-23T20:01:48.260Z,11.43
2022-09-23T20:04:16.006Z,11.44
2022-09-23T20:06:43.286Z,11.45
2022-09-23T20:09:10.025Z,11.45
2022-09-23T20:11:36.901Z,11.45
2022-09-23T20:14:06.289Z,11.44
2022-09-23T20:16:36.868Z,11.43
2022-09-23T20:19:04.375Z,11.42
2022-09-23T20:21:31.532Z,11.41
2022-09-23T20:23:58.350Z,11.39
2022-09-23T20:26:43.468Z,11.36
2022-09-23T20:29:11.098Z,11.34
2022-09-23T20:31:41.489Z,11.34
2022-09-23T20:34:10.502Z,11.33
2022-09-23T20:36:37.828Z,11.28
2022-09-23T20:39:08.020Z,11.20
2022-09-23T20:41:37.587Z,11.12
2022-09-23T20:44:12.421Z,11.10
2022-09-23T20:46:48.225Z,11.14
2022-09-23T20:49:19.640Z,11.20
2022-09-23T20:51:50.512Z,11.25
2022-09-23T20:54:20.332Z,11.29
2022-09-23T20:56:47.663Z,11.34
2022-09-23T20:59:15.082Z,11.35
2022-09-23T21:01:41.877Z,11.28
2022-09-23T21:04:09.791Z,11.23
2022-09-23T21:06:37.597Z,11.23
2022-09-23T21:09:07.602Z,11.28
2022-09-23T21:11:34.355Z,11.36
2022-09-23T21:14:01.547Z,11.43
2022-09-23T21:16:28.661Z,11.46
2022-09-23T21:18:55.407Z,11.48
2022-09-23T21:21:22.543Z,11.47
2022-09-23T21:23:52.648Z,11.49
2022-09-23T21:26:24.742Z,11.50
2022-09-23T21:28:55.159Z,11.51
2022-09-23T21:31:25.585Z,11.52
2022-09-23T21:33:59.095Z,11.53
2022-09-23T21:36:28.254Z,11.56
2022-09-23T21:38:58.263Z,11.56
2022-09-23T21:41:25.391Z,11.56
2022-09-23T21:43:52.059Z,11.56
2022-09-23T21:46:20.666Z,11.56
2022-09-23T21:48:53.012Z,11.56
2022-09-23T21:51:25.729Z,11.57
2022-09-23T21:53:54.892Z,11.59
2022-09-23T21:56:22.866Z,11.62
2022-09-23T21:58:49.935Z,11.63
2022-09-23T22:01:22.677Z,11.65
2022-09-23T22:03:54.514Z,11.64
2022-09-23T22:06:23.671Z,11.62
2022-09-23T22:08:53.531Z,11.61
2022-09-23T22:11:41.190Z,11.62
2022-09-23T22:14:11.790Z,11.63
2022-09-23T22:16:42.552Z,11.59
2022-09-23T22:19:13.055Z,11.58
2022-09-23T22:21:41.734Z,11.57
2022-09-23T22:24:12.735Z,11.54
2022-09-23T22:26:45.747Z,11.52
2022-09-23T22:29:33.262Z,11.49
2022-09-23T22:32:20.343Z,11.48
2022-09-23T22:34:52.352Z,11.47
2022-09-23T22:37:28.289Z,11.46
2022-09-23T22:39:55.052Z,11.41
2022-09-23T22:42:22.441Z,11.39
2022-09-23T22:44:50.112Z,11.37
2022-09-23T22:47:20.496Z,11.38
2022-09-23T22:49:50.570Z,11.41
2022-09-23T22:52:23.691Z,11.42
2022-09-23T22:54:54.372Z,11.42
2022-09-23T22:57:20.973Z,11.41
2022-09-23T22:59:48.500Z,11.41
2022-09-23T23:02:20.843Z,11.42
2022-09-23T23:04:48.228Z,11.43
2022-09-23T23:07:23.458Z,11.45
2022-09-23T23:09:50.824Z,11.46
2022-09-23T23:12:20.960Z,11.43
2022-09-23T23:14:49.078Z,11.41
2022-09-23T23:17:19.264Z,11.33
2022-09-23T23:19:46.078Z,11.30
2022-09-23T23:22:12.816Z,11.31
2022-09-23T23:24:41.892Z,11.34
2022-09-23T23:27:08.470Z,11.34
2022-09-23T23:29:37.628Z,11.32
2022-09-23T23:32:05.203Z,11.32
2022-09-23T23:34:31.967Z,11.33
2022-09-23T23:36:58.619Z,11.35
2022-09-23T23:39:25.716Z,11.37
2022-09-23T23:41:57.068Z,11.36
2022-09-23T23:44:26.198Z,11.36
2022-09-23T23:46:54.264Z,11.39
2022-09-23T23:49:21.628Z,11.38
2022-09-23T23:51:51.026Z,11.37
2022-09-23T23:54:17.613Z,11.34
2022-09-23T23:56:44.321Z,11.29
2022-09-23T23:59:11.355Z,11.25
